sensor_id;sensor_type;location;lat;lon;timestamp;pressure;altitude;pressure_sealevel;temperature;humidity
80624;BME280;70269;44.768;9.600;2023-11-19T00:01:33;98042.53;;;3.42;70.62
80624;BME280;70269;44.768;9.600;2023-11-19T00:03:58;98050.78;;;3.31;70.66
80624;BME280;70269;44.768;9.600;2023-11-19T00:06:24;98064.66;;;3.16;71.35
80624;BME280;70269;44.768;9.600;2023-11-19T00:08:50;98046.34;;;3.04;72.59
80624;BME280;70269;44.768;9.600;2023-11-19T00:11:16;98052.78;;;3.11;71.97
80624;BME280;70269;44.768;9.600;2023-11-19T00:13:42;98050.84;;;3.21;70.26
80624;BME280;70269;44.768;9.600;2023-11-19T00:16:07;98033.09;;;3.30;70.25
80624;BME280;70269;44.768;9.600;2023-11-19T00:18:35;98021.56;;;3.29;70.83
80624;BME280;70269;44.768;9.600;2023-11-19T00:21:01;98011.03;;;3.28;70.65
80624;BME280;70269;44.768;9.600;2023-11-19T00:23:28;98011.13;;;3.36;71.87
80624;BME280;70269;44.768;9.600;2023-11-19T00:26:19;98014.88;;;3.25;71.01
80624;BME280;70269;44.768;9.600;2023-11-19T00:28:51;98010.28;;;3.17;72.33
80624;BME280;70269;44.768;9.600;2023-11-19T00:31:18;98015.25;;;3.12;72.42
80624;BME280;70269;44.768;9.600;2023-11-19T00:33:43;98011.38;;;3.07;72.52
80624;BME280;70269;44.768;9.600;2023-11-19T00:36:10;98011.13;;;3.00;72.80
80624;BME280;70269;44.768;9.600;2023-11-19T00:38:36;98007.78;;;2.98;72.51
80624;BME280;70269;44.768;9.600;2023-11-19T00:41:02;98003.03;;;3.10;73.98
80624;BME280;70269;44.768;9.600;2023-11-19T00:43:29;97995.88;;;3.28;72.47
80624;BME280;70269;44.768;9.600;2023-11-19T00:45:54;97990.34;;;3.47;71.58
80624;BME280;70269;44.768;9.600;2023-11-19T00:48:20;97997.00;;;3.43;71.51
80624;BME280;70269;44.768;9.600;2023-11-19T00:50:45;98003.03;;;3.28;71.33
80624;BME280;70269;44.768;9.600;2023-11-19T00:53:11;98020.13;;;3.35;70.18
80624;BME280;70269;44.768;9.600;2023-11-19T00:55:37;98016.16;;;3.21;70.76
80624;BME280;70269;44.768;9.600;2023-11-19T00:58:03;98017.78;;;3.14;71.28
80624;BME280;70269;44.768;9.600;2023-11-19T01:00:28;98026.00;;;3.03;72.94
80624;BME280;70269;44.768;9.600;2023-11-19T01:02:54;98014.34;;;3.04;72.82
80624;BME280;70269;44.768;9.600;2023-11-19T01:05:21;97996.59;;;2.95;73.86
80624;BME280;70269;44.768;9.600;2023-11-19T01:07:50;98000.75;;;2.97;72.71
80624;BME280;70269;44.768;9.600;2023-11-19T01:10:18;97994.19;;;3.09;72.82
80624;BME280;70269;44.768;9.600;2023-11-19T01:12:44;97992.22;;;3.11;72.29
80624;BME280;70269;44.768;9.600;2023-11-19T01:15:10;97994.16;;;3.01;72.73
80624;BME280;70269;44.768;9.600;2023-11-19T01:17:37;97989.66;;;3.02;72.74
80624;BME280;70269;44.768;9.600;2023-11-19T01:20:03;97995.66;;;3.04;72.58
80624;BME280;70269;44.768;9.600;2023-11-19T01:22:32;97993.81;;;2.87;73.56
80624;BME280;70269;44.768;9.600;2023-11-19T01:24:58;97996.72;;;2.75;73.95
80624;BME280;70269;44.768;9.600;2023-11-19T01:27:24;97992.69;;;2.71;74.52
80624;BME280;70269;44.768;9.600;2023-11-19T01:29:50;97981.81;;;2.55;75.59
80624;BME280;70269;44.768;9.600;2023-11-19T01:32:15;97975.59;;;2.47;75.87
80624;BME280;70269;44.768;9.600;2023-11-19T01:34:41;97968.50;;;2.55;75.11
80624;BME280;70269;44.768;9.600;2023-11-19T01:37:07;97974.06;;;2.62;74.25
80624;BME280;70269;44.768;9.600;2023-11-19T01:39:34;97967.75;;;2.80;74.08
80624;BME280;70269;44.768;9.600;2023-11-19T01:42:00;97968.06;;;2.95;73.54
80624;BME280;70269;44.768;9.600;2023-11-19T01:44:25;97961.75;;;2.96;73.34
80624;BME280;70269;44.768;9.600;2023-11-19T01:46:51;97963.41;;;2.97;72.56
80624;BME280;70269;44.768;9.600;2023-11-19T01:49:18;97954.13;;;3.01;72.88
80624;BME280;70269;44.768;9.600;2023-11-19T01:51:45;97953.19;;;2.93;73.46
80624;BME280;70269;44.768;9.600;2023-11-19T01:54:12;97947.56;;;2.96;73.69
80624;BME280;70269;44.768;9.600;2023-11-19T01:56:39;97964.25;;;2.80;74.21
80624;BME280;70269;44.768;9.600;2023-11-19T01:59:09;97968.34;;;2.74;74.57
80624;BME280;70269;44.768;9.600;2023-11-19T02:01:36;97969.28;;;2.65;75.18
80624;BME280;70269;44.768;9.600;2023-11-19T02:04:08;97968.03;;;2.60;75.70
80624;BME280;70269;44.768;9.600;2023-11-19T02:06:37;97962.25;;;2.64;75.86
80624;BME280;70269;44.768;9.600;2023-11-19T02:09:06;97964.69;;;2.58;75.46
80624;BME280;70269;44.768;9.600;2023-11-19T02:11:34;97955.25;;;2.63;76.75
80624;BME280;70269;44.768;9.600;2023-11-19T02:14:00;97946.09;;;2.66;75.98
80624;BME280;70269;44.768;9.600;2023-11-19T02:16:26;97933.59;;;2.84;74.31
80624;BME280;70269;44.768;9.600;2023-11-19T02:18:53;97925.38;;;2.95;72.92
80624;BME280;70269;44.768;9.600;2023-11-19T02:21:18;97910.63;;;3.09;72.71
80624;BME280;70269;44.768;9.600;2023-11-19T02:23:45;97909.41;;;3.03;73.52
80624;BME280;70269;44.768;9.600;2023-11-19T02:26:28;97905.38;;;2.99;73.68
80624;BME280;70269;44.768;9.600;2023-11-19T02:28:56;97905.91;;;3.03;73.61
80624;BME280;70269;44.768;9.600;2023-11-19T02:31:21;97893.66;;;2.92;74.15
80624;BME280;70269;44.768;9.600;2023-11-19T02:33:48;97892.91;;;2.82;74.67
80624;BME280;70269;44.768;9.600;2023-11-19T02:36:15;97888.56;;;2.81;74.16
80624;BME280;70269;44.768;9.600;2023-11-19T02:38:42;97884.34;;;2.78;74.64
80624;BME280;70269;44.768;9.600;2023-11-19T02:41:08;97883.59;;;2.86;75.52
80624;BME280;70269;44.768;9.600;2023-11-19T02:43:37;97881.53;;;2.80;74.34
80624;BME280;70269;44.768;9.600;2023-11-19T02:46:03;97872.69;;;2.79;74.15
80624;BME280;70269;44.768;9.600;2023-11-19T02:48:34;97884.22;;;2.80;73.98
80624;BME280;70269;44.768;9.600;2023-11-19T02:51:03;97885.50;;;2.94;73.17
80624;BME280;70269;44.768;9.600;2023-11-19T02:53:32;97880.31;;;2.92;73.67
80624;BME280;70269;44.768;9.600;2023-11-19T02:55:57;97869.00;;;2.98;72.66
80624;BME280;70269;44.768;9.600;2023-11-19T02:58:31;97865.44;;;3.07;71.44
80624;BME280;70269;44.768;9.600;2023-11-19T03:00:57;97862.75;;;3.07;72.06
80624;BME280;70269;44.768;9.600;2023-11-19T03:03:25;97864.47;;;3.16;72.36
80624;BME280;70269;44.768;9.600;2023-11-19T03:05:56;97861.38;;;3.03;72.46
80624;BME280;70269;44.768;9.600;2023-11-19T03:08:22;97859.72;;;3.02;72.32
80624;BME280;70269;44.768;9.600;2023-11-19T03:10:48;97856.16;;;2.94;72.58
80624;BME280;70269;44.768;9.600;2023-11-19T03:13:14;97856.84;;;2.96;73.41
80624;BME280;70269;44.768;9.600;2023-11-19T03:15:40;97857.47;;;2.90;73.41
80624;BME280;70269;44.768;9.600;2023-11-19T03:18:07;97853.56;;;2.84;73.29
80624;BME280;70269;44.768;9.600;2023-11-19T03:20:32;97865.38;;;2.81;73.89
80624;BME280;70269;44.768;9.600;2023-11-19T03:22:58;97868.06;;;2.81;72.93
80624;BME280;70269;44.768;9.600;2023-11-19T03:25:27;97862.03;;;2.79;73.49
80624;BME280;70269;44.768;9.600;2023-11-19T03:27:58;97857.53;;;2.80;73.51
80624;BME280;70269;44.768;9.600;2023-11-19T03:30:24;97848.63;;;2.89;72.53
80624;BME280;70269;44.768;9.600;2023-11-19T03:32:50;97852.78;;;2.92;73.20
80624;BME280;70269;44.768;9.600;2023-11-19T03:35:15;97863.00;;;2.96;73.69
80624;BME280;70269;44.768;9.600;2023-11-19T03:37:42;97857.59;;;2.88;73.97
80624;BME280;70269;44.768;9.600;2023-11-19T03:40:09;97860.84;;;3.00;74.04
80624;BME280;70269;44.768;9.600;2023-11-19T03:42:35;97856.00;;;2.95;74.32
80624;BME280;70269;44.768;9.600;2023-11-19T03:45:01;97860.06;;;2.81;75.92
80624;BME280;70269;44.768;9.600;2023-11-19T03:47:29;97861.44;;;2.68;75.83
80624;BME280;70269;44.768;9.600;2023-11-19T03:49:54;97867.00;;;2.57;75.75
80624;BME280;70269;44.768;9.600;2023-11-19T03:52:20;97865.94;;;2.50;76.36
80624;BME280;70269;44.768;9.600;2023-11-19T03:54:46;97874.69;;;2.42;76.19
80624;BME280;70269;44.768;9.600;2023-11-19T03:57:12;97875.25;;;2.46;76.75
80624;BME280;70269;44.768;9.600;2023-11-19T03:59:39;97876.84;;;2.56;74.98
80624;BME280;70269;44.768;9.600;2023-11-19T04:02:04;97860.97;;;2.55;74.91
80624;BME280;70269;44.768;9.600;2023-11-19T04:04:30;97868.13;;;2.72;74.93
80624;BME280;70269;44.768;9.600;2023-11-19T04:06:56;97869.75;;;2.65;75.25
80624;BME280;70269;44.768;9.600;2023-11-19T04:09:22;97873.09;;;2.67;75.58
80624;BME280;70269;44.768;9.600;2023-11-19T04:11:49;97864.47;;;2.73;74.49
80624;BME280;70269;44.768;9.600;2023-11-19T04:14:15;97869.16;;;2.71;74.12
80624;BME280;70269;44.768;9.600;2023-11-19T04:16:45;97876.44;;;2.69;74.93
80624;BME280;70269;44.768;9.600;2023-11-19T04:19:11;97874.06;;;2.66;74.65
80624;BME280;70269;44.768;9.600;2023-11-19T04:21:37;97873.66;;;2.53;75.41
80624;BME280;70269;44.768;9.600;2023-11-19T04:24:05;97878.91;;;2.44;76.54
80624;BME280;70269;44.768;9.600;2023-11-19T04:26:31;97874.16;;;2.38;76.97
80624;BME280;70269;44.768;9.600;2023-11-19T04:28:57;97862.53;;;2.39;77.17
80624;BME280;70269;44.768;9.600;2023-11-19T04:31:23;97857.00;;;2.41;76.74
80624;BME280;70269;44.768;9.600;2023-11-19T04:33:48;97858.94;;;2.49;75.89
80624;BME280;70269;44.768;9.600;2023-11-19T04:36:18;97847.66;;;2.55;76.06
80624;BME280;70269;44.768;9.600;2023-11-19T04:38:44;97840.03;;;2.60;76.28
80624;BME280;70269;44.768;9.600;2023-11-19T04:41:09;97847.97;;;2.52;75.86
80624;BME280;70269;44.768;9.600;2023-11-19T04:43:35;97844.97;;;2.55;76.13
80624;BME280;70269;44.768;9.600;2023-11-19T04:46:04;97846.38;;;2.59;76.84
80624;BME280;70269;44.768;9.600;2023-11-19T04:48:29;97824.97;;;2.51;76.67
80624;BME280;70269;44.768;9.600;2023-11-19T04:50:55;97826.16;;;2.56;76.27
80624;BME280;70269;44.768;9.600;2023-11-19T04:53:20;97829.75;;;2.47;76.47
80624;BME280;70269;44.768;9.600;2023-11-19T04:55:46;97816.34;;;2.57;75.95
80624;BME280;70269;44.768;9.600;2023-11-19T04:58:11;97814.16;;;2.52;76.41
80624;BME280;70269;44.768;9.600;2023-11-19T05:00:37;97818.03;;;2.58;76.19
80624;BME280;70269;44.768;9.600;2023-11-19T05:03:02;97821.69;;;2.57;75.54
80624;BME280;70269;44.768;9.600;2023-11-19T05:05:29;97816.84;;;2.60;75.30
80624;BME280;70269;44.768;9.600;2023-11-19T05:07:54;97808.13;;;2.50;75.91
80624;BME280;70269;44.768;9.600;2023-11-19T05:10:20;97801.56;;;2.44;76.56
80624;BME280;70269;44.768;9.600;2023-11-19T05:12:46;97798.22;;;2.42;76.60
80624;BME280;70269;44.768;9.600;2023-11-19T05:15:12;97791.75;;;2.45;77.19
80624;BME280;70269;44.768;9.600;2023-11-19T05:17:38;97789.47;;;2.50;75.92
80624;BME280;70269;44.768;9.600;2023-11-19T05:20:05;97785.00;;;2.76;75.51
80624;BME280;70269;44.768;9.600;2023-11-19T05:22:39;97782.47;;;2.75;75.59
80624;BME280;70269;44.768;9.600;2023-11-19T05:25:05;97768.78;;;2.70;76.11
80624;BME280;70269;44.768;9.600;2023-11-19T05:27:31;97771.81;;;2.75;75.68
80624;BME280;70269;44.768;9.600;2023-11-19T05:29:57;97774.09;;;2.70;75.92
80624;BME280;70269;44.768;9.600;2023-11-19T05:32:23;97784.84;;;2.60;76.47
80624;BME280;70269;44.768;9.600;2023-11-19T05:34:48;97788.91;;;2.64;76.19
80624;BME280;70269;44.768;9.600;2023-11-19T05:37:14;97781.34;;;2.60;76.31
80624;BME280;70269;44.768;9.600;2023-11-19T05:39:40;97771.78;;;2.49;76.68
80624;BME280;70269;44.768;9.600;2023-11-19T05:42:05;97780.53;;;2.41;77.60
80624;BME280;70269;44.768;9.600;2023-11-19T05:44:31;97769.25;;;2.48;77.64
80624;BME280;70269;44.768;9.600;2023-11-19T05:46:56;97767.91;;;2.43;78.11
80624;BME280;70269;44.768;9.600;2023-11-19T05:49:22;97767.53;;;2.38;78.16
80624;BME280;70269;44.768;9.600;2023-11-19T05:51:47;97755.88;;;2.39;77.98
80624;BME280;70269;44.768;9.600;2023-11-19T05:54:13;97757.34;;;2.34;78.13
80624;BME280;70269;44.768;9.600;2023-11-19T05:56:39;97748.44;;;2.25;78.29
80624;BME280;70269;44.768;9.600;2023-11-19T05:59:04;97747.81;;;2.31;78.60
80624;BME280;70269;44.768;9.600;2023-11-19T06:01:36;97750.19;;;2.34;78.35
80624;BME280;70269;44.768;9.600;2023-11-19T06:04:02;97752.59;;;2.46;77.85
80624;BME280;70269;44.768;9.600;2023-11-19T06:06:28;97756.91;;;2.64;77.05
80624;BME280;70269;44.768;9.600;2023-11-19T06:08:54;97760.09;;;2.68;76.91
80624;BME280;70269;44.768;9.600;2023-11-19T06:11:21;97757.75;;;2.65;77.45
80624;BME280;70269;44.768;9.600;2023-11-19T06:13:47;97760.72;;;2.62;77.31
80624;BME280;70269;44.768;9.600;2023-11-19T06:16:16;97760.44;;;2.73;76.86
80624;BME280;70269;44.768;9.600;2023-11-19T06:18:41;97750.19;;;2.60;77.82
80624;BME280;70269;44.768;9.600;2023-11-19T06:21:09;97755.28;;;2.71;77.82
80624;BME280;70269;44.768;9.600;2023-11-19T06:23:35;97761.41;;;2.64;78.11
80624;BME280;70269;44.768;9.600;2023-11-19T06:26:00;97759.94;;;2.69;78.15
80624;BME280;70269;44.768;9.600;2023-11-19T06:28:26;97757.69;;;2.82;77.78
80624;BME280;70269;44.768;9.600;2023-11-19T06:30:52;97767.81;;;2.79;77.52
80624;BME280;70269;44.768;9.600;2023-11-19T06:33:18;97755.47;;;2.78;78.02
80624;BME280;70269;44.768;9.600;2023-11-19T06:35:43;97766.78;;;2.72;78.88
80624;BME280;70269;44.768;9.600;2023-11-19T06:38:10;97764.84;;;2.82;79.03
80624;BME280;70269;44.768;9.600;2023-11-19T06:40:36;97767.81;;;2.79;79.57
80624;BME280;70269;44.768;9.600;2023-11-19T06:43:02;97763.59;;;2.68;80.30
80624;BME280;70269;44.768;9.600;2023-11-19T06:45:30;97773.53;;;2.84;79.52
80624;BME280;70269;44.768;9.600;2023-11-19T06:47:56;97785.25;;;2.91;79.56
80624;BME280;70269;44.768;9.600;2023-11-19T06:50:22;97789.53;;;2.84;79.61
80624;BME280;70269;44.768;9.600;2023-11-19T06:52:49;97782.31;;;2.76;79.69
80624;BME280;70269;44.768;9.600;2023-11-19T06:55:15;97779.13;;;2.73;80.20
80624;BME280;70269;44.768;9.600;2023-11-19T06:57:41;97778.84;;;2.84;79.95
80624;BME280;70269;44.768;9.600;2023-11-19T07:00:07;97779.03;;;2.82;80.65
80624;BME280;70269;44.768;9.600;2023-11-19T07:02:33;97783.75;;;2.89;80.32
80624;BME280;70269;44.768;9.600;2023-11-19T07:04:59;97777.94;;;2.93;80.92
80624;BME280;70269;44.768;9.600;2023-11-19T07:07:25;97779.34;;;3.05;80.53
80624;BME280;70269;44.768;9.600;2023-11-19T07:09:51;97782.06;;;3.13;79.92
80624;BME280;70269;44.768;9.600;2023-11-19T07:12:17;97767.53;;;3.08;80.00
80624;BME280;70269;44.768;9.600;2023-11-19T07:14:42;97763.03;;;3.16;80.25
80624;BME280;70269;44.768;9.600;2023-11-19T07:17:08;97756.78;;;3.34;79.52
80624;BME280;70269;44.768;9.600;2023-11-19T07:19:37;97756.47;;;3.37;78.73
80624;BME280;70269;44.768;9.600;2023-11-19T07:22:03;97766.06;;;3.55;79.50
80624;BME280;70269;44.768;9.600;2023-11-19T07:24:29;97764.75;;;3.67;79.67
80624;BME280;70269;44.768;9.600;2023-11-19T07:26:55;97770.09;;;3.67;78.59
80624;BME280;70269;44.768;9.600;2023-11-19T07:29:21;97764.91;;;3.66;79.20
80624;BME280;70269;44.768;9.600;2023-11-19T07:31:48;97773.31;;;3.79;78.57
80624;BME280;70269;44.768;9.600;2023-11-19T07:34:15;97755.50;;;4.12;77.74
80624;BME280;70269;44.768;9.600;2023-11-19T07:36:40;97762.22;;;4.48;76.18
80624;BME280;70269;44.768;9.600;2023-11-19T07:39:06;97758.00;;;4.70;76.06
80624;BME280;70269;44.768;9.600;2023-11-19T07:41:34;97763.47;;;5.01;75.32
80624;BME280;70269;44.768;9.600;2023-11-19T07:44:04;97754.53;;;5.33;74.03
80624;BME280;70269;44.768;9.600;2023-11-19T07:46:30;97752.72;;;5.64;73.36
80624;BME280;70269;44.768;9.600;2023-11-19T07:48:59;97733.84;;;5.89;71.90
80624;BME280;70269;44.768;9.600;2023-11-19T07:51:25;97744.84;;;6.02;71.34
80624;BME280;70269;44.768;9.600;2023-11-19T07:53:51;97739.00;;;6.21;72.12
80624;BME280;70269;44.768;9.600;2023-11-19T07:56:16;97750.63;;;6.59;70.17
80624;BME280;70269;44.768;9.600;2023-11-19T07:58:42;97746.78;;;6.76;69.22
80624;BME280;70269;44.768;9.600;2023-11-19T08:01:09;97726.47;;;6.74;68.61
80624;BME280;70269;44.768;9.600;2023-11-19T08:03:34;97737.03;;;6.75;68.58
80624;BME280;70269;44.768;9.600;2023-11-19T08:06:00;97726.69;;;6.72;69.09
80624;BME280;70269;44.768;9.600;2023-11-19T08:08:27;97727.34;;;6.89;67.96
80624;BME280;70269;44.768;9.600;2023-11-19T08:10:55;97736.63;;;7.01;68.52
80624;BME280;70269;44.768;9.600;2023-11-19T08:13:23;97729.03;;;7.05;68.63
80624;BME280;70269;44.768;9.600;2023-11-19T08:15:49;97731.25;;;7.30;68.03
80624;BME280;70269;44.768;9.600;2023-11-19T08:18:14;97733.75;;;7.61;66.95
80624;BME280;70269;44.768;9.600;2023-11-19T08:20:40;97752.28;;;7.56;65.68
80624;BME280;70269;44.768;9.600;2023-11-19T08:23:06;97740.97;;;7.17;65.08
80624;BME280;70269;44.768;9.600;2023-11-19T08:25:32;97743.66;;;7.61;66.64
80624;BME280;70269;44.768;9.600;2023-11-19T08:27:59;97731.31;;;8.02;66.40
80624;BME280;70269;44.768;9.600;2023-11-19T08:30:25;97746.56;;;8.31;65.59
80624;BME280;70269;44.768;9.600;2023-11-19T08:32:51;97742.53;;;8.42;64.84
80624;BME280;70269;44.768;9.600;2023-11-19T08:35:16;97732.66;;;8.49;62.29
80624;BME280;70269;44.768;9.600;2023-11-19T08:37:42;97735.72;;;8.46;62.09
80624;BME280;70269;44.768;9.600;2023-11-19T08:40:08;97728.50;;;8.46;62.41
80624;BME280;70269;44.768;9.600;2023-11-19T08:42:33;97733.50;;;8.49;63.40
80624;BME280;70269;44.768;9.600;2023-11-19T08:44:59;97711.13;;;8.49;63.68
80624;BME280;70269;44.768;9.600;2023-11-19T08:47:24;97712.22;;;8.55;63.83
80624;BME280;70269;44.768;9.600;2023-11-19T08:49:53;97717.78;;;8.53;63.19
80624;BME280;70269;44.768;9.600;2023-11-19T08:52:19;97717.53;;;8.48;64.43
80624;BME280;70269;44.768;9.600;2023-11-19T08:54:44;97725.44;;;8.49;65.25
80624;BME280;70269;44.768;9.600;2023-11-19T08:57:10;97714.09;;;8.82;65.25
80624;BME280;70269;44.768;9.600;2023-11-19T08:59:36;97715.47;;;8.99;64.85
80624;BME280;70269;44.768;9.600;2023-11-19T09:02:04;97720.41;;;8.68;65.44
80624;BME280;70269;44.768;9.600;2023-11-19T09:04:30;97708.44;;;7.92;65.22
80624;BME280;70269;44.768;9.600;2023-11-19T09:06:57;97735.03;;;8.37;64.43
80624;BME280;70269;44.768;9.600;2023-11-19T09:09:23;97718.97;;;8.29;66.75
80624;BME280;70269;44.768;9.600;2023-11-19T09:11:48;97730.97;;;8.27;65.87
80624;BME280;70269;44.768;9.600;2023-11-19T09:14:14;97723.50;;;8.43;64.99
80624;BME280;70269;44.768;9.600;2023-11-19T09:16:39;97716.47;;;8.28;66.00
80624;BME280;70269;44.768;9.600;2023-11-19T09:19:05;97718.16;;;8.29;66.30
80624;BME280;70269;44.768;9.600;2023-11-19T09:21:30;97718.38;;;8.48;66.38
80624;BME280;70269;44.768;9.600;2023-11-19T09:23:56;97734.47;;;8.42;66.35
80624;BME280;70269;44.768;9.600;2023-11-19T09:26:22;97743.63;;;8.69;64.43
80624;BME280;70269;44.768;9.600;2023-11-19T09:28:48;97735.66;;;8.61;63.67
80624;BME280;70269;44.768;9.600;2023-11-19T09:31:17;97747.66;;;9.07;66.40
80624;BME280;70269;44.768;9.600;2023-11-19T09:33:43;97745.63;;;9.16;66.25
80624;BME280;70269;44.768;9.600;2023-11-19T09:36:11;97742.47;;;9.40;63.92
80624;BME280;70269;44.768;9.600;2023-11-19T09:38:39;97729.00;;;9.40;64.31
80624;BME280;70269;44.768;9.600;2023-11-19T09:41:05;97743.44;;;9.32;62.37
80624;BME280;70269;44.768;9.600;2023-11-19T09:43:35;97752.47;;;9.87;63.66
80624;BME280;70269;44.768;9.600;2023-11-19T09:46:06;97739.75;;;10.29;57.59
80624;BME280;70269;44.768;9.600;2023-11-19T09:48:33;97741.03;;;10.39;57.09
80624;BME280;70269;44.768;9.600;2023-11-19T09:51:01;97734.00;;;10.58;56.40
80624;BME280;70269;44.768;9.600;2023-11-19T09:53:27;97732.13;;;10.65;56.48
80624;BME280;70269;44.768;9.600;2023-11-19T09:55:53;97741.25;;;10.58;54.85
80624;BME280;70269;44.768;9.600;2023-11-19T09:58:19;97743.78;;;10.72;55.70
80624;BME280;70269;44.768;9.600;2023-11-19T10:00:44;97731.94;;;10.67;54.41
80624;BME280;70269;44.768;9.600;2023-11-19T10:03:11;97751.44;;;10.62;54.41
80624;BME280;70269;44.768;9.600;2023-11-19T10:05:37;97756.66;;;10.83;54.89
80624;BME280;70269;44.768;9.600;2023-11-19T10:08:05;97749.19;;;10.85;54.82
80624;BME280;70269;44.768;9.600;2023-11-19T10:10:30;97733.56;;;10.81;53.47
80624;BME280;70269;44.768;9.600;2023-11-19T10:12:56;97747.72;;;10.89;54.21
80624;BME280;70269;44.768;9.600;2023-11-19T10:15:23;97740.44;;;10.77;52.01
80624;BME280;70269;44.768;9.600;2023-11-19T10:17:55;97741.69;;;10.94;52.97
80624;BME280;70269;44.768;9.600;2023-11-19T10:20:22;97728.81;;;10.96;52.03
80624;BME280;70269;44.768;9.600;2023-11-19T10:22:48;97721.94;;;11.00;51.96
80624;BME280;70269;44.768;9.600;2023-11-19T10:25:24;97722.94;;;11.25;51.73
80624;BME280;70269;44.768;9.600;2023-11-19T10:27:50;97725.22;;;11.42;51.78
80624;BME280;70269;44.768;9.600;2023-11-19T10:30:27;97722.53;;;11.35;51.12
80624;BME280;70269;44.768;9.600;2023-11-19T10:35:32;97723.13;;;11.37;51.08
80624;BME280;70269;44.768;9.600;2023-11-19T10:38:14;97710.88;;;11.34;50.29
80624;BME280;70269;44.768;9.600;2023-11-19T10:40:41;97709.63;;;11.30;51.70
80624;BME280;70269;44.768;9.600;2023-11-19T10:43:07;97712.09;;;11.39;51.88
80624;BME280;70269;44.768;9.600;2023-11-19T10:45:33;97705.66;;;11.40;52.36
80624;BME280;70269;44.768;9.600;2023-11-19T10:47:59;97693.34;;;11.50;51.80
80624;BME280;70269;44.768;9.600;2023-11-19T10:50:26;97683.38;;;11.38;52.88
80624;BME280;70269;44.768;9.600;2023-11-19T10:52:56;97681.31;;;11.40;52.75
80624;BME280;70269;44.768;9.600;2023-11-19T10:55:27;97671.50;;;11.52;53.90
80624;BME280;70269;44.768;9.600;2023-11-19T10:57:58;97687.94;;;11.44;52.84
80624;BME280;70269;44.768;9.600;2023-11-19T11:00:24;97681.28;;;11.53;53.63
80624;BME280;70269;44.768;9.600;2023-11-19T11:02:54;97667.56;;;11.48;53.89
80624;BME280;70269;44.768;9.600;2023-11-19T11:05:22;97671.06;;;11.55;53.33
80624;BME280;70269;44.768;9.600;2023-11-19T11:07:48;97663.56;;;11.57;53.82
80624;BME280;70269;44.768;9.600;2023-11-19T11:10:16;97655.03;;;11.60;54.86
80624;BME280;70269;44.768;9.600;2023-11-19T11:12:43;97656.66;;;11.61;54.51
80624;BME280;70269;44.768;9.600;2023-11-19T11:15:10;97666.50;;;11.49;55.62
80624;BME280;70269;44.768;9.600;2023-11-19T11:17:39;97664.22;;;11.52;54.95
80624;BME280;70269;44.768;9.600;2023-11-19T11:20:05;97661.91;;;11.49;56.44
80624;BME280;70269;44.768;9.600;2023-11-19T11:36:21;97617.41;;;11.52;58.72
80624;BME280;70269;44.768;9.600;2023-11-19T11:38:48;97623.22;;;11.49;58.27
80624;BME280;70269;44.768;9.600;2023-11-19T11:41:18;97630.25;;;11.56;58.68
80624;BME280;70269;44.768;9.600;2023-11-19T11:43:46;97639.41;;;11.62;59.68
80624;BME280;70269;44.768;9.600;2023-11-19T11:49:05;97628.38;;;11.63;60.09
80624;BME280;70269;44.768;9.600;2023-11-19T11:57:09;97625.44;;;11.71;60.81
80624;BME280;70269;44.768;9.600;2023-11-19T12:02:12;97617.72;;;11.68;60.75
80624;BME280;70269;44.768;9.600;2023-11-19T12:04:42;97615.22;;;11.67;60.32
80624;BME280;70269;44.768;9.600;2023-11-19T12:07:22;97622.94;;;11.77;60.47
80624;BME280;70269;44.768;9.600;2023-11-19T12:09:53;97622.69;;;11.85;61.08
80624;BME280;70269;44.768;9.600;2023-11-19T12:12:27;97622.69;;;11.85;59.63
80624;BME280;70269;44.768;9.600;2023-11-19T12:14:59;97624.97;;;11.81;60.53
80624;BME280;70269;44.768;9.600;2023-11-19T12:20:00;97608.78;;;11.68;60.73
80624;BME280;70269;44.768;9.600;2023-11-19T12:22:26;97613.78;;;11.64;61.29
80624;BME280;70269;44.768;9.600;2023-11-19T12:24:54;97609.59;;;11.75;62.05
80624;BME280;70269;44.768;9.600;2023-11-19T12:27:20;97603.34;;;11.68;61.12
80624;BME280;70269;44.768;9.600;2023-11-19T12:29:48;97597.94;;;11.74;60.62
80624;BME280;70269;44.768;9.600;2023-11-19T12:32:14;97596.53;;;11.65;60.78
80624;BME280;70269;44.768;9.600;2023-11-19T12:34:40;97587.53;;;11.71;60.73
80624;BME280;70269;44.768;9.600;2023-11-19T12:37:05;97588.97;;;11.81;60.63
80624;BME280;70269;44.768;9.600;2023-11-19T12:39:31;97594.13;;;11.89;60.68
80624;BME280;70269;44.768;9.600;2023-11-19T12:41:57;97578.34;;;11.79;60.20
80624;BME280;70269;44.768;9.600;2023-11-19T12:44:25;97582.97;;;11.79;60.37
80624;BME280;70269;44.768;9.600;2023-11-19T12:49:29;97579.78;;;11.82;60.19
80624;BME280;70269;44.768;9.600;2023-11-19T12:51:55;97587.91;;;11.82;60.94
80624;BME280;70269;44.768;9.600;2023-11-19T12:54:36;97576.06;;;11.83;61.23
80624;BME280;70269;44.768;9.600;2023-11-19T12:57:03;97569.97;;;11.87;60.16
80624;BME280;70269;44.768;9.600;2023-11-19T12:59:30;97557.06;;;11.89;60.74
80624;BME280;70269;44.768;9.600;2023-11-19T13:01:59;97558.94;;;11.89;60.61
80624;BME280;70269;44.768;9.600;2023-11-19T13:04:29;97555.41;;;11.88;60.48
80624;BME280;70269;44.768;9.600;2023-11-19T13:06:59;97545.81;;;11.86;60.51
80624;BME280;70269;44.768;9.600;2023-11-19T13:09:26;97542.28;;;11.85;61.01
80624;BME280;70269;44.768;9.600;2023-11-19T13:11:53;97539.59;;;11.85;60.93
80624;BME280;70269;44.768;9.600;2023-11-19T13:14:20;97534.56;;;11.89;61.13
80624;BME280;70269;44.768;9.600;2023-11-19T13:16:46;97527.50;;;11.88;60.65
80624;BME280;70269;44.768;9.600;2023-11-19T13:19:17;97530.00;;;11.89;61.62
80624;BME280;70269;44.768;9.600;2023-11-19T13:21:44;97530.00;;;11.89;60.78
80624;BME280;70269;44.768;9.600;2023-11-19T13:24:13;97527.13;;;11.84;60.67
80624;BME280;70269;44.768;9.600;2023-11-19T13:26:38;97511.47;;;11.86;61.83
80624;BME280;70269;44.768;9.600;2023-11-19T13:29:04;97514.63;;;11.83;61.75
80624;BME280;70269;44.768;9.600;2023-11-19T13:31:30;97520.84;;;11.90;61.08
80624;BME280;70269;44.768;9.600;2023-11-19T13:33:56;97516.25;;;11.91;61.39
80624;BME280;70269;44.768;9.600;2023-11-19T13:36:25;97518.34;;;11.89;62.14
80624;BME280;70269;44.768;9.600;2023-11-19T13:38:51;97512.47;;;11.92;61.13